LSP603 KLAX-SCEL
Flight info
| Callsign | LSP603 |
|---|---|
| Flight time | N/A |
| Altitude | 31000 |
| Route | PNDAH2 OTAYY DCT TIJ UT4 LMM UJ3 SEDEM/N0501F330 UJ3 GDL UJ7 UPN UT145 ACA UL344 POGAM UL401 PABOB/N0496F350 UL401 VTN |
| Aircraft | B77W/H-SDE1E2E3FGHIJ2J3J4J5M1RWXY/LB1D1 |
Departure
| Time | 2026-04-25 04:01 |
|---|---|
| Airport | Los Angeles International Airport (KLAX) |
Arrival
| Time | N/A |
|---|---|
| Airport | Comodoro Arturo Merino Benítez International Airport (SCEL) |
| Time | Latitude | Longitude | Altitude | Speed | Heading |
|---|---|---|---|---|---|
| 2026-04-25 03:14 | 33.94032 | -118.39986 | 98 ft | 0 kts | 49° |
| 2026-04-25 03:43 | 33.94025 | -118.39997 | 99 ft | 4 kts | 49° |
| 2026-04-25 03:43 | 33.94007 | -118.40021 | 98 ft | 4 kts | 49° |
| 2026-04-25 03:44 | 33.93993 | -118.40040 | 99 ft | 4 kts | 42° |
| 2026-04-25 03:44 | 33.93972 | -118.40060 | 97 ft | 4 kts | 36° |
| 2026-04-25 03:44 | 33.93954 | -118.40081 | 100 ft | 4 kts | 75° |
| 2026-04-25 03:44 | 33.93950 | -118.40106 | 98 ft | 4 kts | 82° |
| 2026-04-25 03:45 | 33.93947 | -118.40137 | 98 ft | 2 kts | 82° |
| 2026-04-25 03:45 | 33.93947 | -118.40138 | 98 ft | 0 kts | 82° |
| 2026-04-25 03:49 | 33.93950 | -118.40112 | 98 ft | 6 kts | 83° |
| 2026-04-25 03:49 | 33.93955 | -118.40064 | 97 ft | 6 kts | 82° |
| 2026-04-25 03:50 | 33.93960 | -118.40017 | 98 ft | 6 kts | 82° |
| 2026-04-25 03:50 | 33.93965 | -118.39970 | 100 ft | 6 kts | 82° |
| 2026-04-25 03:50 | 33.93970 | -118.39922 | 100 ft | 6 kts | 84° |
| 2026-04-25 03:50 | 33.93974 | -118.39874 | 98 ft | 6 kts | 84° |
| 2026-04-25 03:51 | 33.93969 | -118.39828 | 98 ft | 6 kts | 127° |
| 2026-04-25 03:51 | 33.93934 | -118.39803 | 101 ft | 6 kts | 150° |
| 2026-04-25 03:51 | 33.93909 | -118.39766 | 102 ft | 6 kts | 110° |
| 2026-04-25 03:51 | 33.93908 | -118.39717 | 102 ft | 6 kts | 87° |
| 2026-04-25 03:52 | 33.93912 | -118.39667 | 101 ft | 6 kts | 83° |
| 2026-04-25 03:52 | 33.93917 | -118.39618 | 100 ft | 6 kts | 83° |
| 2026-04-25 03:52 | 33.93922 | -118.39569 | 100 ft | 6 kts | 83° |
| 2026-04-25 03:52 | 33.93927 | -118.39521 | 101 ft | 6 kts | 83° |
| 2026-04-25 03:53 | 33.93932 | -118.39471 | 100 ft | 6 kts | 83° |
| 2026-04-25 03:53 | 33.93937 | -118.39422 | 102 ft | 6 kts | 83° |
| 2026-04-25 03:53 | 33.93942 | -118.39373 | 101 ft | 6 kts | 84° |
| 2026-04-25 03:53 | 33.93946 | -118.39324 | 98 ft | 6 kts | 83° |
| 2026-04-25 03:54 | 33.93951 | -118.39275 | 99 ft | 6 kts | 81° |
| 2026-04-25 03:54 | 33.93958 | -118.39226 | 100 ft | 6 kts | 81° |
| 2026-04-25 03:54 | 33.93962 | -118.39193 | 100 ft | 6 kts | 82° |
| 2026-04-25 03:54 | 33.93967 | -118.39127 | 101 ft | 6 kts | 86° |
| 2026-04-25 03:55 | 33.93971 | -118.39095 | 98 ft | 6 kts | 82° |
| 2026-04-25 03:55 | 33.93976 | -118.39045 | 99 ft | 6 kts | 82° |
| 2026-04-25 03:55 | 33.93982 | -118.38996 | 99 ft | 6 kts | 82° |
| 2026-04-25 03:55 | 33.93987 | -118.38947 | 99 ft | 6 kts | 82° |
| 2026-04-25 03:56 | 33.93992 | -118.38893 | 99 ft | 8 kts | 84° |
| 2026-04-25 03:56 | 33.93999 | -118.38817 | 102 ft | 10 kts | 83° |
| 2026-04-25 03:56 | 33.94010 | -118.38713 | 102 ft | 16 kts | 83° |
| 2026-04-25 03:56 | 33.94025 | -118.38571 | 102 ft | 17 kts | 83° |
| 2026-04-25 03:57 | 33.94038 | -118.38436 | 103 ft | 15 kts | 83° |
| 2026-04-25 03:57 | 33.94052 | -118.38308 | 103 ft | 15 kts | 83° |
| 2026-04-25 03:57 | 33.94065 | -118.38181 | 99 ft | 15 kts | 83° |
| 2026-04-25 03:57 | 33.94076 | -118.38082 | 98 ft | 7 kts | 81° |
| 2026-04-25 03:58 | 33.94078 | -118.38040 | 98 ft | 0 kts | 99° |
| 2026-04-25 03:58 | 33.94077 | -118.38039 | 98 ft | 2 kts | 105° |
| 2026-04-25 03:58 | 33.94038 | -118.38004 | 100 ft | 11 kts | 165° |
| 2026-04-25 03:58 | 33.93985 | -118.38054 | 101 ft | 11 kts | 251° |
| 2026-04-25 03:59 | 33.93978 | -118.38091 | 98 ft | 0 kts | 259° |
| 2026-04-25 04:00 | 33.93976 | -118.38103 | 99 ft | 2 kts | 261° |
| 2026-04-25 04:00 | 33.93975 | -118.38112 | 99 ft | 0 kts | 261° |
| 2026-04-25 04:00 | 33.93960 | -118.38249 | 103 ft | 51 kts | 263° |
| 2026-04-25 04:01 | 33.93882 | -118.39011 | 103 ft | 131 kts | 263° |
| 2026-04-25 04:01 | 33.93740 | -118.40398 | 104 ft | 198 kts | 263° |
| 2026-04-25 04:01 | 33.93554 | -118.42186 | 538 ft | 214 kts | 263° |
| 2026-04-25 04:01 | 33.93378 | -118.43915 | 1601 ft | 210 kts | 262° |
| 2026-04-25 04:02 | 33.93145 | -118.45696 | 1947 ft | 230 kts | 260° |
| 2026-04-25 04:02 | 33.92821 | -118.47730 | 1906 ft | 264 kts | 258° |
| 2026-04-25 04:02 | 33.92392 | -118.49959 | 2325 ft | 275 kts | 252° |
| 2026-04-25 04:02 | 33.91343 | -118.51826 | 3150 ft | 269 kts | 218° |
| 2026-04-25 04:03 | 33.89826 | -118.53013 | 4128 ft | 254 kts | 215° |
| 2026-04-25 04:03 | 33.88427 | -118.54326 | 4768 ft | 258 kts | 224° |
| 2026-04-25 04:03 | 33.87097 | -118.55860 | 5019 ft | 269 kts | 218° |
| 2026-04-25 04:03 | 33.85380 | -118.56692 | 5043 ft | 273 kts | 183° |
| 2026-04-25 04:04 | 33.83528 | -118.56200 | 5015 ft | 277 kts | 152° |
| 2026-04-25 04:04 | 33.81801 | -118.55196 | 5004 ft | 277 kts | 166° |
| 2026-04-25 04:04 | 33.79911 | -118.54782 | 5024 ft | 277 kts | 172° |
| 2026-04-25 04:04 | 33.78001 | -118.54338 | 5017 ft | 281 kts | 168° |
| 2026-04-25 04:05 | 33.76102 | -118.53823 | 5005 ft | 278 kts | 168° |
| 2026-04-25 04:05 | 33.74223 | -118.53308 | 4991 ft | 275 kts | 168° |
| 2026-04-25 04:05 | 33.72388 | -118.52809 | 4993 ft | 274 kts | 169° |
| 2026-04-25 04:05 | 33.70556 | -118.52196 | 4985 ft | 273 kts | 154° |
| 2026-04-25 04:06 | 33.69108 | -118.50687 | 5027 ft | 286 kts | 123° |
| 2026-04-25 04:06 | 33.68174 | -118.48568 | 5153 ft | 287 kts | 117° |
| 2026-04-25 04:06 | 33.67273 | -118.46444 | 5599 ft | 285 kts | 118° |
| 2026-04-25 04:06 | 33.66363 | -118.44317 | 6292 ft | 288 kts | 118° |
| 2026-04-25 04:07 | 33.65445 | -118.42170 | 6945 ft | 290 kts | 118° |
| 2026-04-25 04:07 | 33.64513 | -118.39991 | 7500 ft | 295 kts | 118° |
| 2026-04-25 04:07 | 33.63567 | -118.37783 | 8114 ft | 299 kts | 119° |
| 2026-04-25 04:07 | 33.62609 | -118.35554 | 8737 ft | 302 kts | 119° |
| 2026-04-25 04:08 | 33.61637 | -118.33297 | 9331 ft | 307 kts | 120° |
| 2026-04-25 04:08 | 33.60662 | -118.31033 | 9894 ft | 311 kts | 120° |
| 2026-04-25 04:08 | 33.59657 | -118.28704 | 10363 ft | 319 kts | 120° |
| 2026-04-25 04:08 | 33.58599 | -118.26258 | 10508 ft | 340 kts | 120° |
| 2026-04-25 04:09 | 33.57479 | -118.23669 | 10661 ft | 360 kts | 120° |
| 2026-04-25 04:09 | 33.56292 | -118.20921 | 10809 ft | 381 kts | 120° |
| 2026-04-25 04:09 | 33.55047 | -118.18043 | 11140 ft | 395 kts | 120° |
| 2026-04-25 04:09 | 33.53764 | -118.15080 | 11620 ft | 404 kts | 120° |
| 2026-04-25 04:10 | 33.52461 | -118.12057 | 12218 ft | 410 kts | 120° |
| 2026-04-25 04:10 | 33.51151 | -118.09005 | 12875 ft | 414 kts | 120° |
| 2026-04-25 04:10 | 33.49825 | -118.05919 | 13513 ft | 419 kts | 120° |
| 2026-04-25 04:10 | 33.48477 | -118.02790 | 14050 ft | 425 kts | 120° |
| 2026-04-25 04:11 | 33.45225 | -117.96941 | 14846 ft | 421 kts | 143° |
| 2026-04-25 04:11 | 33.42969 | -117.94640 | 14748 ft | 426 kts | 144° |
| 2026-04-25 04:11 | 33.40734 | -117.92389 | 14747 ft | 422 kts | 144° |
| 2026-04-25 04:12 | 33.38517 | -117.90122 | 14756 ft | 418 kts | 144° |
| 2026-04-25 04:12 | 33.36313 | -117.87836 | 14785 ft | 420 kts | 143° |
| 2026-04-25 04:12 | 33.34114 | -117.85529 | 14786 ft | 422 kts | 143° |
| 2026-04-25 04:12 | 33.31906 | -117.83199 | 14793 ft | 423 kts | 143° |
| 2026-04-25 04:13 | 33.29699 | -117.80862 | 14788 ft | 424 kts | 143° |
| 2026-04-25 04:13 | 33.27490 | -117.78522 | 14784 ft | 425 kts | 143° |
| 2026-04-25 04:13 | 33.25281 | -117.76182 | 14789 ft | 425 kts | 143° |
| 2026-04-25 04:13 | 33.23066 | -117.73839 | 14787 ft | 424 kts | 143° |
| 2026-04-25 04:14 | 33.20883 | -117.71532 | 14780 ft | 423 kts | 143° |
| 2026-04-25 04:14 | 33.18682 | -117.69209 | 14785 ft | 422 kts | 143° |
| 2026-04-25 04:14 | 33.16480 | -117.66887 | 14789 ft | 421 kts | 143° |
| 2026-04-25 04:14 | 33.14305 | -117.64549 | 14792 ft | 421 kts | 142° |
| 2026-04-25 04:15 | 33.12158 | -117.62168 | 14794 ft | 421 kts | 141° |
| 2026-04-25 04:15 | 33.10024 | -117.59775 | 14795 ft | 421 kts | 141° |
| 2026-04-25 04:15 | 33.07893 | -117.57382 | 14795 ft | 420 kts | 141° |
| 2026-04-25 04:15 | 33.05757 | -117.54991 | 14797 ft | 420 kts | 142° |
| 2026-04-25 04:16 | 33.03626 | -117.52613 | 14792 ft | 420 kts | 142° |
| 2026-04-25 04:16 | 33.01492 | -117.50239 | 14788 ft | 420 kts | 142° |
| 2026-04-25 04:16 | 32.99345 | -117.47855 | 14795 ft | 420 kts | 142° |
| 2026-04-25 04:16 | 32.97239 | -117.45519 | 14799 ft | 420 kts | 142° |
| 2026-04-25 04:17 | 32.95102 | -117.43152 | 14803 ft | 420 kts | 142° |
| 2026-04-25 04:17 | 32.92953 | -117.40773 | 14807 ft | 420 kts | 142° |